Time;durP1;ratioP1;P1;durP2;ratioP2;P2;SDS_P1;SDS_P2;PMS_P1;PMS_P2;Temp;Humidity;BMP_temperature;BMP_pressure;BME280_temperature;BME280_humidity;BME280_pressure;Samples;Min_cycle;Max_cycle;Signal;HPM_P1;HPM_P2
2022/05/30 00:00:55;;;;;;;7.50;5.90;;;;;;;10.11;66.81;98955.95;431119;1269;184575;-57
2022/05/30 00:11:02;;;;;;;10.70;5.50;;;;;;;10.08;66.85;98950.36;429559;1271;141662;-57
2022/05/30 00:21:06;;;;;;;9.30;7.20;;;;;;;10.05;67.08;98948.88;431698;1271;141546;-55
2022/05/30 00:31:11;;;;;;;10.30;7.70;;;;;;;10.06;66.99;98957.36;431769;1271;142433;-56
2022/05/30 00:41:16;;;;;;;9.20;7.10;;;;;;;10.06;67.42;98956.49;432427;1270;142646;-56
2022/05/30 00:51:22;;;;;;;7.80;6.40;;;;;;;10.07;68.16;98959.90;436637;1271;140883;-56
2022/05/30 01:01:25;;;;;;;11.30;6.80;;;;;;;10.07;68.84;98949.61;431791;1270;142201;-56
2022/05/30 01:11:47;;;;;;;11.70;7.40;;;;;;;10.04;68.96;98942.09;435815;1270;143173;-56
2022/05/30 01:22:10;;;;;;;9.00;8.00;;;;;;;10.03;69.49;98932.02;429973;1271;145415;-55
2022/05/30 01:32:18;;;;;;;9.20;7.50;;;;;;;10.06;70.10;98922.55;443033;1271;143556;-56
2022/05/30 01:42:21;;;;;;;8.70;7.10;;;;;;;10.05;70.17;98915.95;434520;1271;146843;-56
2022/05/30 01:52:24;;;;;;;9.90;7.40;;;;;;;9.98;70.71;98913.19;445716;1269;141839;-56
2022/05/30 02:02:27;;;;;;;9.40;7.90;;;;;;;9.95;70.83;98912.82;434880;1270;141757;-56
2022/05/30 02:12:31;;;;;;;17.20;9.40;;;;;;;9.89;71.02;98911.35;433727;1269;141247;-57
2022/05/30 02:22:34;;;;;;;11.50;8.40;;;;;;;9.88;71.07;98910.91;435446;1270;142081;-57
2022/05/30 02:32:37;;;;;;;12.80;10.90;;;;;;;9.88;71.08;98902.66;431521;1271;142256;-58
2022/05/30 02:42:42;;;;;;;10.40;9.00;;;;;;;9.85;70.84;98898.88;431128;1271;147426;-57
2022/05/30 02:52:45;;;;;;;11.20;8.30;;;;;;;9.77;71.04;98894.52;431308;1271;142495;-56
2022/05/30 03:02:48;;;;;;;11.00;8.40;;;;;;;9.71;71.17;98891.34;431711;1270;141664;-58
2022/05/30 03:12:51;;;;;;;10.10;6.80;;;;;;;9.72;71.22;98890.73;431048;1270;145355;-57
2022/05/30 03:22:54;;;;;;;9.90;7.60;;;;;;;9.75;71.14;98880.76;430579;1271;141746;-58
2022/05/30 03:32:58;;;;;;;8.80;6.30;;;;;;;9.78;71.45;98881.55;431741;1271;146353;-57
2022/05/30 03:43:01;;;;;;;8.00;6.90;;;;;;;9.97;71.47;98888.78;431369;1270;146670;-56
2022/05/30 03:53:05;;;;;;;8.90;7.80;;;;;;;10.15;71.25;98878.55;431890;1271;147130;-55
2022/05/30 04:03:09;;;;;;;8.80;6.30;;;;;;;10.34;71.47;98878.55;431471;1270;141484;-56
2022/05/30 04:13:12;;;;;;;10.10;7.30;;;;;;;10.42;71.36;98884.64;430913;1270;142987;-56
2022/05/30 04:23:16;;;;;;;9.70;6.60;;;;;;;10.64;71.37;98882.98;429645;1270;141763;-56
2022/05/30 04:33:19;;;;;;;8.40;7.40;;;;;;;11.04;71.05;98879.27;430090;1271;141768;-56
2022/05/30 04:43:23;;;;;;;6.50;5.00;;;;;;;11.79;70.19;98877.24;430766;1270;141608;-56
2022/05/30 04:53:26;;;;;;;6.40;4.90;;;;;;;13.53;68.68;98865.05;429836;1270;141791;-58
2022/05/30 05:03:31;;;;;;;7.70;3.60;;;;;;;16.59;64.48;98858.18;430602;1271;143182;-57
2022/05/30 05:13:34;;;;;;;7.30;2.80;;;;;;;18.95;58.88;98857.89;430183;1271;146741;-57
2022/05/30 05:23:43;;;;;;;3.80;2.70;;;;;;;21.70;54.26;98849.39;430316;1270;141079;-57
2022/05/30 05:33:46;;;;;;;5.90;3.00;;;;;;;22.87;49.62;98843.27;431020;1270;151524;-57
2022/05/30 05:43:50;;;;;;;4.80;2.40;;;;;;;21.37;48.05;98840.85;433998;1270;141697;-57
2022/05/30 05:53:54;;;;;;;2.40;1.80;;;;;;;19.82;48.04;98842.68;431570;1270;141414;-55
2022/05/30 06:03:59;;;;;;;9.20;3.80;;;;;;;18.76;48.59;98844.92;431398;1271;142118;-55
2022/05/30 06:14:03;;;;;;;6.20;2.40;;;;;;;17.98;49.17;98841.75;430682;1270;144469;-55
2022/05/30 06:24:10;;;;;;;7.00;2.60;;;;;;;17.31;49.89;98840.27;430703;1270;140678;-53
2022/05/30 06:34:13;;;;;;;17.50;3.20;;;;;;;17.19;49.56;98840.06;431273;1270;142571;-54
2022/05/30 06:44:16;;;;;;;3.80;3.00;;;;;;;17.19;49.52;98837.77;430356;1269;140816;-51
2022/05/30 06:54:20;;;;;;;5.40;1.90;;;;;;;17.41;49.00;98841.86;430603;1270;141925;-54
2022/05/30 07:04:23;;;;;;;3.40;1.60;;;;;;;18.62;47.78;98840.52;431298;1271;144868;-56
2022/05/30 07:14:26;;;;;;;4.90;2.50;;;;;;;19.04;46.57;98842.95;430058;1271;141261;-55
2022/05/30 07:24:30;;;;;;;13.90;3.10;;;;;;;19.05;45.90;98844.36;431562;1271;146068;-53
2022/05/30 07:34:33;;;;;;;5.80;2.70;;;;;;;18.57;46.20;98847.13;430455;1271;141715;-56
2022/05/30 07:44:37;;;;;;;3.00;1.90;;;;;;;17.83;46.83;98851.14;431089;1271;145261;-55
2022/05/30 07:54:40;;;;;;;6.60;2.10;;;;;;;16.67;48.27;98857.19;430251;1271;151278;-54
2022/05/30 08:04:43;;;;;;;4.80;1.60;;;;;;;15.94;49.31;98866.79;431007;1271;142293;-55
2022/05/30 08:14:46;;;;;;;5.30;1.70;;;;;;;15.82;49.76;98873.07;430411;1271;140777;-53
2022/05/30 08:24:51;;;;;;;3.90;2.00;;;;;;;15.48;50.25;98873.65;431763;1271;141111;-56
2022/05/30 08:34:55;;;;;;;4.70;2.40;;;;;;;14.90;51.30;98881.98;430127;1271;345382;-57
2022/05/30 08:44:58;;;;;;;4.40;1.80;;;;;;;14.74;51.90;98883.04;429979;1271;142401;-57
2022/05/30 08:55:12;;;;;;;7.20;2.10;;;;;;;15.05;52.16;98890.30;430055;1271;145417;-57
2022/05/30 09:05:20;;;;;;;9.80;2.50;;;;;;;14.18;52.86;98899.49;431767;1271;141364;-57
2022/05/30 09:15:44;;;;;;;;;;;;;;;13.40;54.68;98908.45;430536;1271;146222;-56
2022/05/30 09:25:57;;;;;;;4.40;1.90;;;;;;;13.03;56.08;98916.88;431669;1271;127723;-55
2022/05/30 09:36:18;;;;;;;5.00;1.50;;;;;;;12.92;56.83;98929.90;432955;1271;141434;-55
2022/05/30 09:46:31;;;;;;;6.60;2.40;;;;;;;12.89;57.21;98941.23;431785;1271;140863;-57
2022/05/30 09:56:39;;;;;;;6.30;3.10;;;;;;;12.85;57.89;98951.02;429704;1271;141757;-57
2022/05/30 10:06:42;;;;;;;2.50;1.50;;;;;;;12.66;58.51;98963.15;430243;1271;141026;-57
2022/05/30 10:16:46;;;;;;;4.30;1.60;;;;;;;12.62;59.18;98976.99;430347;1271;141778;-58
2022/05/30 10:37:31;;;;;;;3.10;1.50;;;;;;;12.34;60.70;99000.29;431032;1271;141786;-56
2022/05/30 10:47:38;;;;;;;3.60;2.20;;;;;;;11.99;61.41;99013.06;430156;1271;147807;-57
2022/05/30 10:57:44;;;;;;;3.30;1.70;;;;;;;11.88;62.24;99024.39;431515;1270;141595;-56
2022/05/30 11:07:52;;;;;;;1.50;1.20;;;;;;;12.29;62.20;99031.26;430919;1270;143179;-58
2022/05/30 11:18:01;;;;;;;2.70;1.40;;;;;;;12.78;62.16;99037.63;430733;1271;141963;-53
2022/05/30 11:28:14;;;;;;;1.20;0.80;;;;;;;13.07;61.28;99045.61;430989;1270;141480;-53
2022/05/30 11:38:42;;;;;;;1.90;1.40;;;;;;;13.39;60.60;99046.55;430836;1271;142854;-55
2022/05/30 11:48:53;;;;;;;2.40;1.70;;;;;;;13.47;60.99;99048.19;431539;1271;147572;-56
2022/05/30 11:59:14;;;;;;;3.20;1.80;;;;;;;14.36;60.74;99044.80;431726;1270;142327;-54
2022/05/30 12:09:48;;;;;;;2.80;1.60;;;;;;;15.13;59.14;99041.40;431963;1271;142707;-58
2022/05/30 12:30:46;;;;;;;1.40;1.30;;;;;;;15.97;56.75;99033.51;432087;1271;146027;-58
2022/05/30 12:41:19;;;;;;;2.10;1.10;;;;;;;16.07;53.81;99023.89;430060;1271;142186;-59
2022/05/30 12:51:26;;;;;;;0.70;0.70;;;;;;;15.39;53.08;99017.61;432487;1271;140322;-60
2022/05/30 13:01:49;;;;;;;8.30;2.10;;;;;;;14.98;51.24;99025.33;431121;1271;142116;-61
2022/05/30 13:12:07;;;;;;;1.30;0.90;;;;;;;14.51;50.91;99024.77;430938;1271;183483;-58
2022/05/30 13:22:11;;;;;;;2.20;1.00;;;;;;;14.43;51.11;99026.35;431070;1271;140710;-59
2022/05/30 13:32:16;;;;;;;4.10;1.40;;;;;;;14.65;50.61;99025.50;431995;1271;140218;-62
2022/05/30 13:42:19;;;;;;;2.30;1.30;;;;;;;14.89;50.79;99032.86;430627;1271;141286;-61
2022/05/30 13:52:28;;;;;;;4.80;0.90;;;;;;;15.31;50.59;99036.64;431217;1271;141918;-59
2022/05/30 14:02:34;;;;;;;10.90;1.60;;;;;;;15.76;49.42;99038.15;443007;1270;141904;-60
2022/05/30 14:12:46;;;;;;;10.60;2.20;;;;;;;15.83;48.90;99035.20;447515;1271;140778;-61
2022/05/30 14:22:53;;;;;;;8.90;1.30;;;;;;;15.90;48.45;99039.61;434836;1271;141273;-61
2022/05/30 14:33:09;;;;;;;2.50;1.30;;;;;;;16.15;48.28;99045.20;447113;1270;140712;-62
2022/05/30 14:43:28;;;;;;;2.40;1.10;;;;;;;16.29;47.79;99040.54;447603;1270;142672;-56
2022/05/30 14:53:36;;;;;;;1.40;1.10;;;;;;;16.30;47.66;99033.75;431238;1271;141378;-57
2022/05/30 15:14:03;;;;;;;4.70;1.20;;;;;;;16.22;47.98;99035.39;444428;1271;151505;-56
2022/05/30 15:24:15;;;;;;;2.10;0.90;;;;;;;16.13;47.76;99034.70;447780;1270;141623;-57
2022/05/30 15:34:18;;;;;;;5.60;1.70;;;;;;;15.87;48.55;99047.48;443832;1270;142709;-55
2022/05/30 15:44:23;;;;;;;2.60;1.30;;;;;;;16.16;48.80;99056.42;441217;1270;184395;-57
2022/05/30 16:05:06;;;;;;;6.50;2.80;;;;;;;16.37;48.51;99074.40;445638;1270;142358;-55
2022/05/30 16:15:11;;;;;;;1.40;1.00;;;;;;;15.66;49.60;99092.30;447639;1269;140766;-55
2022/05/30 16:25:18;;;;;;;6.70;2.70;;;;;;;15.39;51.17;99108.22;447517;1271;142357;-56
2022/05/30 16:35:21;;;;;;;6.90;3.70;;;;;;;15.06;51.95;99115.05;446937;1270;143958;-57
2022/05/30 16:45:26;;;;;;;3.70;3.30;;;;;;;14.87;53.27;99123.45;443904;1270;141744;-56
2022/05/30 16:55:29;;;;;;;2.60;1.40;;;;;;;15.15;52.90;99129.78;430933;1270;141231;-56
2022/05/30 17:05:40;;;;;;;3.80;1.60;;;;;;;14.85;52.67;99132.06;447018;1269;141170;-54
2022/05/30 17:15:44;;;;;;;3.40;1.30;;;;;;;14.37;53.12;99144.32;436502;1270;142735;-55
2022/05/30 17:25:50;;;;;;;1.60;1.30;;;;;;;13.80;53.25;99149.52;440339;1270;141724;-54
2022/05/30 17:35:53;;;;;;;4.40;2.70;;;;;;;13.50;54.37;99156.41;444952;1271;141536;-56
2022/05/30 17:46:11;;;;;;;3.60;2.40;;;;;;;13.30;55.53;99165.35;435359;1270;143396;-56
2022/05/30 17:56:16;;;;;;;7.20;2.90;;;;;;;13.27;56.54;99176.05;446854;1271;141374;-56
2022/05/30 18:06:23;;;;;;;5.30;2.20;;;;;;;12.97;57.19;99184.89;446419;1268;141418;-56
2022/05/30 18:16:33;;;;;;;2.70;1.80;;;;;;;12.54;57.48;99186.19;438749;1270;141791;-53
2022/05/30 18:26:56;;;;;;;5.80;1.50;;;;;;;12.10;58.02;99183.55;431246;1270;141150;-56
2022/05/30 18:37:10;;;;;;;5.00;2.20;;;;;;;11.65;59.23;99187.15;432067;1271;142603;-57
2022/05/30 18:47:15;;;;;;;8.40;2.20;;;;;;;11.16;60.42;99205.57;431026;1270;142389;-55
2022/05/30 18:57:26;;;;;;;3.90;2.00;;;;;;;10.68;61.53;99232.82;431655;1270;142641;-52
2022/05/30 19:07:30;;;;;;;6.10;3.10;;;;;;;10.26;62.29;99256.64;430553;1270;142206;-54
2022/05/30 19:17:34;;;;;;;13.40;3.80;;;;;;;9.90;63.08;99274.41;429865;1271;142606;-56
2022/05/30 19:27:38;;;;;;;8.70;2.40;;;;;;;9.54;63.85;99283.89;430735;1270;142703;-54
2022/05/30 19:37:42;;;;;;;3.20;2.00;;;;;;;9.21;64.62;99294.70;430614;1270;141456;-53
2022/05/30 19:47:45;;;;;;;4.00;2.50;;;;;;;8.91;65.61;99284.73;430842;1270;143026;-58
2022/05/30 19:57:49;;;;;;;8.30;3.50;;;;;;;8.61;66.01;99266.98;431033;1270;142696;-57
2022/05/30 20:07:52;;;;;;;6.20;4.10;;;;;;;8.37;66.79;99260.17;430025;1271;142905;-57
2022/05/30 20:17:55;;;;;;;12.50;9.80;;;;;;;8.13;67.28;99263.83;431291;1270;141877;-53
2022/05/30 20:27:58;;;;;;;17.10;10.90;;;;;;;7.90;67.80;99263.28;431098;1270;262084;-51
2022/05/30 20:38:03;;;;;;;15.60;8.90;;;;;;;7.68;68.40;99275.66;430830;1270;141620;-54
2022/05/30 20:48:08;;;;;;;15.30;11.10;;;;;;;7.42;68.99;99294.88;431340;1270;141638;-55
2022/05/30 20:58:13;;;;;;;15.90;11.70;;;;;;;7.18;69.55;99316.41;431530;1271;140945;-55
2022/05/30 21:08:16;;;;;;;19.50;12.90;;;;;;;6.94;70.23;99325.48;431307;1270;142574;-52
2022/05/30 21:18:26;;;;;;;17.10;12.80;;;;;;;6.77;70.64;99339.09;431359;1271;140911;-54
2022/05/30 21:28:31;;;;;;;19.10;14.70;;;;;;;6.64;71.30;99344.61;430923;1270;143353;-53
2022/05/30 21:38:34;;;;;;;13.00;11.30;;;;;;;6.52;71.57;99348.56;442436;1270;145524;-57
2022/05/30 21:48:38;;;;;;;14.20;9.80;;;;;;;6.47;71.84;99353.48;433604;1270;141328;-54
2022/05/30 21:58:41;;;;;;;20.30;10.60;;;;;;;6.41;72.26;99355.86;430742;1271;142612;-54
2022/05/30 22:08:45;;;;;;;20.30;9.70;;;;;;;6.29;72.77;99363.06;432210;1270;143896;-53
2022/05/30 22:18:48;;;;;;;19.00;11.30;;;;;;;6.12;73.05;99367.73;432305;1270;141135;-59
2022/05/30 22:28:53;;;;;;;26.90;11.90;;;;;;;5.98;73.32;99382.45;432353;1270;142675;-59
2022/05/30 22:38:56;;;;;;;15.90;10.30;;;;;;;5.82;73.13;99389.66;431289;1271;142669;-55
2022/05/30 22:48:59;;;;;;;12.50;11.10;;;;;;;5.67;73.44;99397.98;431799;1270;144023;-53
2022/05/30 22:59:04;;;;;;;16.60;10.50;;;;;;;5.51;73.35;99401.15;430618;1271;142517;-54
2022/05/30 23:09:08;;;;;;;14.00;9.90;;;;;;;5.40;73.98;99400.59;431788;1270;143284;-56
2022/05/30 23:19:14;;;;;;;16.10;12.10;;;;;;;5.30;73.99;99408.70;432000;1270;141298;-54
2022/05/30 23:29:19;;;;;;;15.00;12.20;;;;;;;5.36;75.07;99409.65;432609;1270;142122;-54
2022/05/30 23:39:22;;;;;;;12.20;9.90;;;;;;;5.41;75.08;99417.20;432550;1270;141723;-54
2022/05/30 23:49:27;;;;;;;10.80;9.50;;;;;;;5.48;75.17;99421.05;436940;1270;141742;-53
2022/05/30 23:59:30;;;;;;;10.70;9.70;;;;;;;5.59;75.11;99424.59;434275;1269;141450;-55
